sensor_id;sensor_type;location;lat;lon;timestamp;pressure;altitude;pressure_sealevel;temperature;humidity
64886;BME280;51514;52.206;5.114;2023-02-12T00:01:34;103922.16;;;9.62;83.17
64886;BME280;51514;52.206;5.114;2023-02-12T00:03:59;103924.84;;;9.62;82.99
64886;BME280;51514;52.206;5.114;2023-02-12T00:06:25;103916.78;;;9.62;83.20
64886;BME280;51514;52.206;5.114;2023-02-12T00:08:52;103921.28;;;9.62;83.26
64886;BME280;51514;52.206;5.114;2023-02-12T00:11:22;103913.22;;;9.62;83.44
64886;BME280;51514;52.206;5.114;2023-02-12T00:13:48;103908.84;;;9.59;83.13
64886;BME280;51514;52.206;5.114;2023-02-12T00:16:16;103916.03;;;9.59;83.37
64886;BME280;51514;52.206;5.114;2023-02-12T00:18:43;103921.44;;;9.59;83.20
64886;BME280;51514;52.206;5.114;2023-02-12T00:21:09;103916.91;;;9.59;83.18
64886;BME280;51514;52.206;5.114;2023-02-12T00:23:36;103921.38;;;9.60;83.11
64886;BME280;51514;52.206;5.114;2023-02-12T00:26:10;103916.91;;;9.59;83.30
64886;BME280;51514;52.206;5.114;2023-02-12T00:28:35;103916.03;;;9.59;83.23
64886;BME280;51514;52.206;5.114;2023-02-12T00:31:08;103917.94;;;9.57;83.31
64886;BME280;51514;52.206;5.114;2023-02-12T00:33:34;103913.44;;;9.57;83.38
64886;BME280;51514;52.206;5.114;2023-02-12T00:36:00;103913.44;;;9.57;83.44
64886;BME280;51514;52.206;5.114;2023-02-12T00:38:25;103914.38;;;9.56;83.18
64886;BME280;51514;52.206;5.114;2023-02-12T00:40:50;103911.69;;;9.56;83.42
64886;BME280;51514;52.206;5.114;2023-02-12T00:43:16;103913.56;;;9.54;83.31
64886;BME280;51514;52.206;5.114;2023-02-12T00:45:43;103912.75;;;9.52;83.31
64886;BME280;51514;52.206;5.114;2023-02-12T00:48:09;103906.59;;;9.50;83.05
64886;BME280;51514;52.206;5.114;2023-02-12T00:50:34;103897.72;;;9.48;83.48
64886;BME280;51514;52.206;5.114;2023-02-12T00:52:59;103896.06;;;9.45;83.59
64886;BME280;51514;52.206;5.114;2023-02-12T00:55:25;103894.22;;;9.46;83.34
64886;BME280;51514;52.206;5.114;2023-02-12T00:57:50;103896.06;;;9.45;83.70
64886;BME280;51514;52.206;5.114;2023-02-12T01:00:15;103904.22;;;9.44;83.35
64886;BME280;51514;52.206;5.114;2023-02-12T01:02:41;103903.41;;;9.42;83.71
64886;BME280;51514;52.206;5.114;2023-02-12T01:05:06;103906.19;;;9.40;83.09
64886;BME280;51514;52.206;5.114;2023-02-12T01:07:32;103902.53;;;9.41;83.30
64886;BME280;51514;52.206;5.114;2023-02-12T01:09:57;103907.06;;;9.41;83.14
64886;BME280;51514;52.206;5.114;2023-02-12T01:12:22;103905.31;;;9.40;83.16
64886;BME280;51514;52.206;5.114;2023-02-12T01:14:48;103902.72;;;9.38;83.30
64886;BME280;51514;52.206;5.114;2023-02-12T01:17:13;103906.34;;;9.37;83.15
64886;BME280;51514;52.206;5.114;2023-02-12T01:19:38;103906.41;;;9.36;82.87
64886;BME280;51514;52.206;5.114;2023-02-12T01:22:04;103907.34;;;9.35;82.81
64886;BME280;51514;52.206;5.114;2023-02-12T01:24:29;103911.00;;;9.34;82.63
64886;BME280;51514;52.206;5.114;2023-02-12T01:26:54;103905.63;;;9.34;82.89
64886;BME280;51514;52.206;5.114;2023-02-12T01:29:20;103902.13;;;9.32;83.00
64886;BME280;51514;52.206;5.114;2023-02-12T01:31:45;103907.69;;;9.29;82.92
64886;BME280;51514;52.206;5.114;2023-02-12T01:34:11;103914.00;;;9.28;83.20
64886;BME280;51514;52.206;5.114;2023-02-12T01:36:37;103915.81;;;9.27;83.13
64886;BME280;51514;52.206;5.114;2023-02-12T01:39:04;103913.22;;;9.26;83.27
64886;BME280;51514;52.206;5.114;2023-02-12T01:41:35;103919.47;;;9.26;83.31
64886;BME280;51514;52.206;5.114;2023-02-12T01:46:41;103920.47;;;9.24;83.18
64886;BME280;51514;52.206;5.114;2023-02-12T01:49:12;103913.34;;;9.23;83.09
64886;BME280;51514;52.206;5.114;2023-02-12T01:51:39;103916.03;;;9.23;83.53
64886;BME280;51514;52.206;5.114;2023-02-12T01:54:07;103917.94;;;9.21;83.56
64886;BME280;51514;52.206;5.114;2023-02-12T01:56:35;103913.66;;;9.17;83.60
64886;BME280;51514;52.206;5.114;2023-02-12T01:59:00;103917.28;;;9.15;83.34
64886;BME280;51514;52.206;5.114;2023-02-12T02:01:28;103919.91;;;9.17;83.75
64886;BME280;51514;52.206;5.114;2023-02-12T02:04:01;103915.47;;;9.16;83.07
64886;BME280;51514;52.206;5.114;2023-02-12T02:06:55;103908.34;;;9.15;83.75
64886;BME280;51514;52.206;5.114;2023-02-12T02:09:21;103911.03;;;9.15;83.50
64886;BME280;51514;52.206;5.114;2023-02-12T02:11:46;103904.78;;;9.14;83.56
64886;BME280;51514;52.206;5.114;2023-02-12T02:14:30;103905.66;;;9.15;83.65
64886;BME280;51514;52.206;5.114;2023-02-12T02:31:15;103905.09;;;9.08;83.82
64886;BME280;51514;52.206;5.114;2023-02-12T02:34:02;103900.72;;;9.06;83.30
64886;BME280;51514;52.206;5.114;2023-02-12T02:37:02;103894.47;;;9.05;83.80
64886;BME280;51514;52.206;5.114;2023-02-12T02:39:36;103899.03;;;9.03;82.85
64886;BME280;51514;52.206;5.114;2023-02-12T02:42:16;103889.34;;;8.99;83.15
64886;BME280;51514;52.206;5.114;2023-02-12T02:44:51;103884.16;;;8.96;83.16
64886;BME280;51514;52.206;5.114;2023-02-12T02:47:20;103893.16;;;8.95;83.00
64886;BME280;51514;52.206;5.114;2023-02-12T02:49:50;103888.84;;;8.91;83.56
64886;BME280;51514;52.206;5.114;2023-02-12T02:52:25;103883.63;;;8.88;83.15
64886;BME280;51514;52.206;5.114;2023-02-12T02:54:55;103889.00;;;8.88;83.15
64886;BME280;51514;52.206;5.114;2023-02-12T02:57:24;103889.00;;;8.88;83.94
64886;BME280;51514;52.206;5.114;2023-02-12T02:59:55;103892.72;;;8.86;84.04
64886;BME280;51514;52.206;5.114;2023-02-12T03:02:27;103884.72;;;8.84;83.76
64886;BME280;51514;52.206;5.114;2023-02-12T03:04:58;103889.31;;;8.82;84.04
64886;BME280;51514;52.206;5.114;2023-02-12T03:07:30;103892.88;;;8.83;84.53
64886;BME280;51514;52.206;5.114;2023-02-12T03:10:01;103888.38;;;8.83;83.88
64886;BME280;51514;52.206;5.114;2023-02-12T03:12:36;103883.94;;;8.82;84.12
64886;BME280;51514;52.206;5.114;2023-02-12T03:15:08;103883.06;;;8.82;84.69
64886;BME280;51514;52.206;5.114;2023-02-12T03:17:38;103880.34;;;8.82;84.34
64886;BME280;51514;52.206;5.114;2023-02-12T03:20:10;103881.22;;;8.82;84.38
64886;BME280;51514;52.206;5.114;2023-02-12T03:22:40;103882.25;;;8.79;84.64
64886;BME280;51514;52.206;5.114;2023-02-12T03:25:13;103876.00;;;8.79;84.48
64886;BME280;51514;52.206;5.114;2023-02-12T03:27:53;103876.88;;;8.79;84.44
64886;BME280;51514;52.206;5.114;2023-02-12T03:30:23;103876.00;;;8.79;84.40
64886;BME280;51514;52.206;5.114;2023-02-12T03:36:02;103872.28;;;8.82;84.75
64886;BME280;51514;52.206;5.114;2023-02-12T03:41:30;103874.97;;;8.82;84.96
64886;BME280;51514;52.206;5.114;2023-02-12T03:44:07;103885.75;;;8.82;84.97
64886;BME280;51514;52.206;5.114;2023-02-12T03:46:54;103891.06;;;8.83;84.81
64886;BME280;51514;52.206;5.114;2023-02-12T03:51:51;103896.50;;;8.82;84.79
64886;BME280;51514;52.206;5.114;2023-02-12T03:54:19;103892.88;;;8.83;85.07
64886;BME280;51514;52.206;5.114;2023-02-12T03:56:56;103897.31;;;8.84;85.27
64886;BME280;51514;52.206;5.114;2023-02-12T03:59:25;103897.25;;;8.85;85.61
64886;BME280;51514;52.206;5.114;2023-02-12T04:01:52;103900.69;;;8.87;84.87
64886;BME280;51514;52.206;5.114;2023-02-12T04:04:19;103893.69;;;8.85;85.44
64886;BME280;51514;52.206;5.114;2023-02-12T04:06:46;103898.19;;;8.84;85.52
64886;BME280;51514;52.206;5.114;2023-02-12T04:09:13;103908.00;;;8.85;85.60
64886;BME280;51514;52.206;5.114;2023-02-12T04:17:02;103897.25;;;8.85;85.29
64886;BME280;51514;52.206;5.114;2023-02-12T04:22:27;103914.41;;;8.83;85.33
64886;BME280;51514;52.206;5.114;2023-02-12T04:25:16;103912.66;;;8.82;85.74
64886;BME280;51514;52.206;5.114;2023-02-12T04:30:31;103915.53;;;8.77;86.21
64886;BME280;51514;52.206;5.114;2023-02-12T04:33:03;103912.78;;;8.78;86.10
64886;BME280;51514;52.206;5.114;2023-02-12T04:35:53;103924.41;;;8.79;85.97
64886;BME280;51514;52.206;5.114;2023-02-12T04:38:27;103922.84;;;8.75;85.55
64886;BME280;51514;52.206;5.114;2023-02-12T04:40:55;103923.59;;;8.77;85.47
64886;BME280;51514;52.206;5.114;2023-02-12T04:43:32;103924.41;;;8.79;86.11
64886;BME280;51514;52.206;5.114;2023-02-12T04:46:02;103925.28;;;8.79;85.65
64886;BME280;51514;52.206;5.114;2023-02-12T04:48:28;103918.03;;;8.82;86.23
64886;BME280;51514;52.206;5.114;2023-02-12T04:50:53;103929.47;;;8.87;86.22
64886;BME280;51514;52.206;5.114;2023-02-12T04:53:19;103926.59;;;8.90;86.05
64886;BME280;51514;52.206;5.114;2023-02-12T04:55:45;103931.91;;;8.91;85.58
64886;BME280;51514;52.206;5.114;2023-02-12T04:58:11;103928.34;;;8.91;85.63
64886;BME280;51514;52.206;5.114;2023-02-12T05:00:37;103933.72;;;8.91;85.13
64886;BME280;51514;52.206;5.114;2023-02-12T05:03:02;103930.41;;;8.86;85.73
64886;BME280;51514;52.206;5.114;2023-02-12T05:05:28;103939.41;;;8.85;85.40
64886;BME280;51514;52.206;5.114;2023-02-12T05:07:53;103942.19;;;8.83;85.60
64886;BME280;51514;52.206;5.114;2023-02-12T05:10:19;103940.44;;;8.82;86.03
64886;BME280;51514;52.206;5.114;2023-02-12T05:12:44;103934.03;;;8.85;85.54
64886;BME280;51514;52.206;5.114;2023-02-12T05:15:10;103935.78;;;8.86;86.31
64886;BME280;51514;52.206;5.114;2023-02-12T05:17:35;103938.38;;;8.87;85.66
64886;BME280;51514;52.206;5.114;2023-02-12T05:20:01;103934.75;;;8.88;86.02
64886;BME280;51514;52.206;5.114;2023-02-12T05:22:27;103924.16;;;8.85;86.19
64886;BME280;51514;52.206;5.114;2023-02-12T05:24:52;103936.06;;;8.79;86.29
64886;BME280;51514;52.206;5.114;2023-02-12T05:27:17;103923.41;;;8.82;86.43
64886;BME280;51514;52.206;5.114;2023-02-12T05:29:43;103937.66;;;8.84;86.08
64886;BME280;51514;52.206;5.114;2023-02-12T05:32:08;103928.66;;;8.85;86.18
64886;BME280;51514;52.206;5.114;2023-02-12T05:34:34;103933.16;;;8.84;85.76
64886;BME280;51514;52.206;5.114;2023-02-12T05:36:59;103938.53;;;8.84;85.76
64886;BME280;51514;52.206;5.114;2023-02-12T05:39:25;103940.28;;;8.85;85.99
64886;BME280;51514;52.206;5.114;2023-02-12T05:41:50;103933.88;;;8.88;85.47
64886;BME280;51514;52.206;5.114;2023-02-12T05:44:16;103929.47;;;8.87;85.86
64886;BME280;51514;52.206;5.114;2023-02-12T05:46:42;103931.09;;;8.89;85.66
64886;BME280;51514;52.206;5.114;2023-02-12T05:49:08;103939.03;;;8.92;85.56
64886;BME280;51514;52.206;5.114;2023-02-12T05:51:34;103938.97;;;8.94;85.38
64886;BME280;51514;52.206;5.114;2023-02-12T05:54:01;103944.28;;;8.95;85.12
64886;BME280;51514;52.206;5.114;2023-02-12T05:56:34;103938.03;;;8.95;85.20
64886;BME280;51514;52.206;5.114;2023-02-12T05:59:03;103937.97;;;8.96;85.33
64886;BME280;51514;52.206;5.114;2023-02-12T06:01:38;103939.72;;;8.97;85.32
64886;BME280;51514;52.206;5.114;2023-02-12T06:04:07;103946.81;;;8.98;84.71
64886;BME280;51514;52.206;5.114;2023-02-12T06:06:33;103941.44;;;8.98;84.30
64886;BME280;51514;52.206;5.114;2023-02-12T06:08:59;103944.94;;;9.00;84.12
64886;BME280;51514;52.206;5.114;2023-02-12T06:11:24;103949.44;;;9.00;84.53
64886;BME280;51514;52.206;5.114;2023-02-12T06:13:50;103946.81;;;8.98;84.32
64886;BME280;51514;52.206;5.114;2023-02-12T06:16:21;103943.34;;;8.96;84.55
64886;BME280;51514;52.206;5.114;2023-02-12T06:18:47;103942.63;;;8.93;84.70
64886;BME280;51514;52.206;5.114;2023-02-12T06:21:13;103949.88;;;8.91;84.55
64886;BME280;51514;52.206;5.114;2023-02-12T06:23:39;103955.25;;;8.91;85.00
64886;BME280;51514;52.206;5.114;2023-02-12T06:26:04;103945.44;;;8.90;84.36
64886;BME280;51514;52.206;5.114;2023-02-12T06:28:30;103945.59;;;8.87;85.11
64886;BME280;51514;52.206;5.114;2023-02-12T06:30:55;103942.91;;;8.87;84.97
64886;BME280;51514;52.206;5.114;2023-02-12T06:33:20;103938.38;;;8.87;84.44
64886;BME280;51514;52.206;5.114;2023-02-12T06:35:46;103947.25;;;8.89;84.29
64886;BME280;51514;52.206;5.114;2023-02-12T06:38:12;103934.59;;;8.91;84.69
64886;BME280;51514;52.206;5.114;2023-02-12T06:40:37;103934.47;;;8.94;83.91
64886;BME280;51514;52.206;5.114;2023-02-12T06:43:03;103934.41;;;8.96;84.11
64886;BME280;51514;52.206;5.114;2023-02-12T06:45:28;103943.34;;;8.96;84.42
64886;BME280;51514;52.206;5.114;2023-02-12T06:47:53;103941.53;;;8.97;83.89
64886;BME280;51514;52.206;5.114;2023-02-12T06:50:19;103947.84;;;8.96;84.74
64886;BME280;51514;52.206;5.114;2023-02-12T06:52:44;103944.22;;;8.97;83.99
64886;BME280;51514;52.206;5.114;2023-02-12T06:55:10;103950.31;;;9.00;84.07
64886;BME280;51514;52.206;5.114;2023-02-12T06:57:35;103952.06;;;9.01;83.48
64886;BME280;51514;52.206;5.114;2023-02-12T07:00:00;103954.69;;;9.03;83.35
64886;BME280;51514;52.206;5.114;2023-02-12T07:02:26;103952.88;;;9.03;83.25
64886;BME280;51514;52.206;5.114;2023-02-12T07:04:51;103943.91;;;9.03;83.28
64886;BME280;51514;52.206;5.114;2023-02-12T07:07:16;103948.44;;;9.02;82.91
64886;BME280;51514;52.206;5.114;2023-02-12T07:09:42;103951.06;;;9.04;82.56
64886;BME280;51514;52.206;5.114;2023-02-12T07:12:07;103951.94;;;9.04;82.93
64886;BME280;51514;52.206;5.114;2023-02-12T07:14:33;103959.00;;;9.07;82.88
64886;BME280;51514;52.206;5.114;2023-02-12T07:16:58;103960.75;;;9.08;82.39
64886;BME280;51514;52.206;5.114;2023-02-12T07:19:27;103960.63;;;9.09;82.07
64886;BME280;51514;52.206;5.114;2023-02-12T07:21:53;103969.59;;;9.10;82.35
64886;BME280;51514;52.206;5.114;2023-02-12T07:24:18;103968.72;;;9.09;82.29
64886;BME280;51514;52.206;5.114;2023-02-12T07:26:44;103971.41;;;9.09;81.96
64886;BME280;51514;52.206;5.114;2023-02-12T07:29:09;103975.22;;;9.05;82.23
64886;BME280;51514;52.206;5.114;2023-02-12T07:31:35;103973.31;;;9.07;82.03
64886;BME280;51514;52.206;5.114;2023-02-12T07:34:00;103981.53;;;9.04;82.57
64886;BME280;51514;52.206;5.114;2023-02-12T07:36:29;103982.34;;;9.06;82.70
64886;BME280;51514;52.206;5.114;2023-02-12T07:38:55;103984.88;;;9.09;82.44
64886;BME280;51514;52.206;5.114;2023-02-12T07:41:23;103986.53;;;9.12;82.18
64886;BME280;51514;52.206;5.114;2023-02-12T07:43:54;103988.28;;;9.13;82.33
64886;BME280;51514;52.206;5.114;2023-02-12T07:46:34;103984.97;;;9.08;82.66
64886;BME280;51514;52.206;5.114;2023-02-12T07:49:02;103999.06;;;9.13;82.93
64886;BME280;51514;52.206;5.114;2023-02-12T07:51:28;103998.94;;;9.16;82.45
64886;BME280;51514;52.206;5.114;2023-02-12T07:53:53;103998.88;;;9.18;82.95
64886;BME280;51514;52.206;5.114;2023-02-12T07:56:21;103999.94;;;9.13;83.04
64886;BME280;51514;52.206;5.114;2023-02-12T07:58:49;103991.06;;;9.11;82.90
64886;BME280;51514;52.206;5.114;2023-02-12T08:01:23;103992.94;;;9.09;83.15
64886;BME280;51514;52.206;5.114;2023-02-12T08:03:51;104001.81;;;9.11;82.40
64886;BME280;51514;52.206;5.114;2023-02-12T08:06:20;103999.88;;;9.15;82.88
64886;BME280;51514;52.206;5.114;2023-02-12T08:08:46;104006.78;;;9.21;82.43
64886;BME280;51514;52.206;5.114;2023-02-12T08:11:12;104002.19;;;9.23;82.49
64886;BME280;51514;52.206;5.114;2023-02-12T08:13:39;103994.91;;;9.25;82.42
64886;BME280;51514;52.206;5.114;2023-02-12T08:16:08;104009.13;;;9.28;82.17
64886;BME280;51514;52.206;5.114;2023-02-12T08:18:34;104016.25;;;9.29;81.36
64886;BME280;51514;52.206;5.114;2023-02-12T08:21:10;104010.06;;;9.27;81.47
64886;BME280;51514;52.206;5.114;2023-02-12T08:23:36;104014.66;;;9.25;81.60
64886;BME280;51514;52.206;5.114;2023-02-12T08:26:07;104010.28;;;9.23;81.51
64886;BME280;51514;52.206;5.114;2023-02-12T08:28:33;104022.22;;;9.17;81.46
64886;BME280;51514;52.206;5.114;2023-02-12T08:31:04;104020.34;;;9.19;81.89
64886;BME280;51514;52.206;5.114;2023-02-12T08:33:29;104014.94;;;9.19;82.20
64886;BME280;51514;52.206;5.114;2023-02-12T08:36:07;104023.78;;;9.21;81.75
64886;BME280;51514;52.206;5.114;2023-02-12T08:38:34;104025.47;;;9.24;82.46
64886;BME280;51514;52.206;5.114;2023-02-12T08:41:05;104024.53;;;9.25;82.90
64886;BME280;51514;52.206;5.114;2023-02-12T08:43:32;104035.16;;;9.28;82.63
64886;BME280;51514;52.206;5.114;2023-02-12T08:46:14;104037.69;;;9.31;82.29
64886;BME280;51514;52.206;5.114;2023-02-12T08:48:40;104039.44;;;9.32;82.54
64886;BME280;51514;52.206;5.114;2023-02-12T08:51:15;104029.72;;;9.29;81.66
64886;BME280;51514;52.206;5.114;2023-02-12T08:53:42;104037.69;;;9.31;82.09
64886;BME280;51514;52.206;5.114;2023-02-12T08:56:09;104050.22;;;9.32;82.04
64886;BME280;51514;52.206;5.114;2023-02-12T08:58:35;104041.38;;;9.30;82.34
64886;BME280;51514;52.206;5.114;2023-02-12T09:01:02;104044.75;;;9.33;81.80
64886;BME280;51514;52.206;5.114;2023-02-12T09:03:27;104043.09;;;9.31;81.66
64886;BME280;51514;52.206;5.114;2023-02-12T09:05:53;104048.41;;;9.32;81.61
64886;BME280;51514;52.206;5.114;2023-02-12T09:08:18;104045.63;;;9.34;81.64
64886;BME280;51514;52.206;5.114;2023-02-12T09:10:44;104050.09;;;9.35;81.14
64886;BME280;51514;52.206;5.114;2023-02-12T09:13:11;104056.13;;;9.40;82.03
64886;BME280;51514;52.206;5.114;2023-02-12T09:15:41;104055.97;;;9.43;82.12
64886;BME280;51514;52.206;5.114;2023-02-12T09:18:07;104047.00;;;9.42;82.07
64886;BME280;51514;52.206;5.114;2023-02-12T09:20:37;104053.06;;;9.47;82.19
64886;BME280;51514;52.206;5.114;2023-02-12T09:23:03;104042.94;;;9.52;82.22
64886;BME280;51514;52.206;5.114;2023-02-12T09:25:29;104053.50;;;9.57;82.09
64886;BME280;51514;52.206;5.114;2023-02-12T09:27:55;104055.13;;;9.61;81.76
64886;BME280;51514;52.206;5.114;2023-02-12T09:30:20;104049.56;;;9.64;81.45
64886;BME280;51514;52.206;5.114;2023-02-12T09:32:46;104053.19;;;9.63;81.11
64886;BME280;51514;52.206;5.114;2023-02-12T09:35:11;104058.59;;;9.63;81.64
64886;BME280;51514;52.206;5.114;2023-02-12T09:37:37;104053.06;;;9.66;81.99
64886;BME280;51514;52.206;5.114;2023-02-12T09:40:05;104043.22;;;9.65;81.82
64886;BME280;51514;52.206;5.114;2023-02-12T09:42:37;104051.47;;;9.62;81.12
64886;BME280;51514;52.206;5.114;2023-02-12T09:45:20;104058.59;;;9.63;80.81
64886;BME280;51514;52.206;5.114;2023-02-12T09:50:55;104049.72;;;9.61;81.38
64886;BME280;51514;52.206;5.114;2023-02-12T09:53:25;104047.03;;;9.61;81.12
64886;BME280;51514;52.206;5.114;2023-02-12T09:55:53;104056.00;;;9.62;81.39
64886;BME280;51514;52.206;5.114;2023-02-12T09:58:58;104057.81;;;9.61;81.94
64886;BME280;51514;52.206;5.114;2023-02-12T10:01:27;104054.16;;;9.62;81.68
64886;BME280;51514;52.206;5.114;2023-02-12T10:03:54;104055.13;;;9.61;81.52
64886;BME280;51514;52.206;5.114;2023-02-12T10:06:23;104048.78;;;9.62;81.44
64886;BME280;51514;52.206;5.114;2023-02-12T10:11:44;104052.25;;;9.64;81.55
64886;BME280;51514;52.206;5.114;2023-02-12T10:16:48;104051.16;;;9.68;81.47
64886;BME280;51514;52.206;5.114;2023-02-12T10:25:40;104052.03;;;9.69;80.35
64886;BME280;51514;52.206;5.114;2023-02-12T10:28:12;104057.28;;;9.72;80.07
64886;BME280;51514;52.206;5.114;2023-02-12T10:30:51;104049.97;;;9.74;80.56
64886;BME280;51514;52.206;5.114;2023-02-12T10:33:26;104043.50;;;9.78;80.60
64886;BME280;51514;52.206;5.114;2023-02-12T10:35:57;104048.00;;;9.77;79.54
64886;BME280;51514;52.206;5.114;2023-02-12T10:38:31;104055.09;;;9.80;80.26
64886;BME280;51514;52.206;5.114;2023-02-12T10:40:59;104053.13;;;9.83;80.32
64886;BME280;51514;52.206;5.114;2023-02-12T10:43:26;104057.41;;;9.87;80.10
64886;BME280;51514;52.206;5.114;2023-02-12T10:45:52;104052.00;;;9.87;79.76
64886;BME280;51514;52.206;5.114;2023-02-12T10:48:32;104054.69;;;9.87;78.99
64886;BME280;51514;52.206;5.114;2023-02-12T10:53:36;104054.50;;;9.92;79.86
64886;BME280;51514;52.206;5.114;2023-02-12T11:01:36;104044.34;;;9.97;79.61
64886;BME280;51514;52.206;5.114;2023-02-12T11:06:57;104044.13;;;10.02;78.72
64886;BME280;51514;52.206;5.114;2023-02-12T11:09:37;104045.94;;;10.01;77.78
64886;BME280;51514;52.206;5.114;2023-02-12T11:12:34;104047.75;;;10.01;77.82
64886;BME280;51514;52.206;5.114;2023-02-12T11:17:38;104045.88;;;10.03;77.91
64886;BME280;51514;52.206;5.114;2023-02-12T11:20:18;104045.78;;;10.04;77.84
64886;BME280;51514;52.206;5.114;2023-02-12T11:22:58;104036.81;;;10.04;77.63
64886;BME280;51514;52.206;5.114;2023-02-12T11:25:27;104041.09;;;10.08;77.97
64886;BME280;51514;52.206;5.114;2023-02-12T11:28:01;104040.94;;;10.11;78.13
64886;BME280;51514;52.206;5.114;2023-02-12T11:30:28;104032.88;;;10.11;77.71
64886;BME280;51514;52.206;5.114;2023-02-12T11:32:54;104038.09;;;10.14;77.44
64886;BME280;51514;52.206;5.114;2023-02-12T11:35:23;104032.72;;;10.14;77.32
64886;BME280;51514;52.206;5.114;2023-02-12T11:37:53;104037.16;;;10.15;77.20
64886;BME280;51514;52.206;5.114;2023-02-12T11:40:25;104038.03;;;10.15;77.15
64886;BME280;51514;52.206;5.114;2023-02-12T11:42:54;104038.97;;;10.14;77.01
64886;BME280;51514;52.206;5.114;2023-02-12T11:45:26;104038.09;;;10.14;77.11
64886;BME280;51514;52.206;5.114;2023-02-12T11:47:54;104036.22;;;10.16;77.63
64886;BME280;51514;52.206;5.114;2023-02-12T11:50:32;104038.75;;;10.19;77.63
64886;BME280;51514;52.206;5.114;2023-02-12T11:53:07;104028.94;;;10.18;77.72
64886;BME280;51514;52.206;5.114;2023-02-12T11:55:39;104029.81;;;10.18;77.33
64886;BME280;51514;52.206;5.114;2023-02-12T12:06:11;104023.94;;;10.28;77.21
64886;BME280;51514;52.206;5.114;2023-02-12T12:11:56;104019.13;;;10.34;77.33
64886;BME280;51514;52.206;5.114;2023-02-12T12:14:35;104022.75;;;10.33;76.86
64886;BME280;51514;52.206;5.114;2023-02-12T12:17:27;104020.06;;;10.33;76.87
64886;BME280;51514;52.206;5.114;2023-02-12T12:20:22;104026.25;;;10.35;77.00
64886;BME280;51514;52.206;5.114;2023-02-12T12:22:53;104011.81;;;10.36;77.58
64886;BME280;51514;52.206;5.114;2023-02-12T12:25:29;104015.22;;;10.40;77.25
64886;BME280;51514;52.206;5.114;2023-02-12T12:33:45;104009.81;;;10.40;77.61
64886;BME280;51514;52.206;5.114;2023-02-12T12:39:10;103996.91;;;10.46;76.51
64886;BME280;51514;52.206;5.114;2023-02-12T12:41:55;104004.03;;;10.47;76.11
64886;BME280;51514;52.206;5.114;2023-02-12T12:50:23;104002.75;;;10.54;75.55
64886;BME280;51514;52.206;5.114;2023-02-12T13:01:14;103989.72;;;10.63;74.85
64886;BME280;51514;52.206;5.114;2023-02-12T13:04:03;103985.97;;;10.65;75.01
64886;BME280;51514;52.206;5.114;2023-02-12T13:06:57;103986.16;;;10.62;74.14
64886;BME280;51514;52.206;5.114;2023-02-12T13:21:02;103966.75;;;10.71;73.62
64886;BME280;51514;52.206;5.114;2023-02-12T13:26:21;103975.72;;;10.72;73.74
64886;BME280;51514;52.206;5.114;2023-02-12T13:28:54;103969.38;;;10.73;73.74
64886;BME280;51514;52.206;5.114;2023-02-12T13:31:23;103970.16;;;10.75;73.99
64886;BME280;51514;52.206;5.114;2023-02-12T13:33:55;103970.88;;;10.78;74.17
64886;BME280;51514;52.206;5.114;2023-02-12T13:36:22;103957.53;;;10.75;74.12
64886;BME280;51514;52.206;5.114;2023-02-12T13:41:19;103961.75;;;10.81;74.02
64886;BME280;51514;52.206;5.114;2023-02-12T13:46:34;103953.47;;;10.84;74.10
64886;BME280;51514;52.206;5.114;2023-02-12T13:49:15;103952.44;;;10.86;73.54
64886;BME280;51514;52.206;5.114;2023-02-12T13:51:44;103951.72;;;10.83;73.54
64886;BME280;51514;52.206;5.114;2023-02-12T13:56:50;103945.72;;;10.78;73.64
64886;BME280;51514;52.206;5.114;2023-02-12T14:01:58;103943.53;;;10.69;73.48
64886;BME280;51514;52.206;5.114;2023-02-12T14:04:34;103950.03;;;10.65;73.78
64886;BME280;51514;52.206;5.114;2023-02-12T14:07:12;103957.34;;;10.63;74.00
64886;BME280;51514;52.206;5.114;2023-02-12T14:09:58;103946.81;;;10.58;74.17
64886;BME280;51514;52.206;5.114;2023-02-12T14:15:04;103939.75;;;10.55;74.59
64886;BME280;51514;52.206;5.114;2023-02-12T14:20:04;103940.34;;;10.60;74.90
64886;BME280;51514;52.206;5.114;2023-02-12T14:27:53;103931.84;;;10.68;74.78
64886;BME280;51514;52.206;5.114;2023-02-12T14:30:38;103929.47;;;10.62;74.75
64886;BME280;51514;52.206;5.114;2023-02-12T14:35:41;103934.94;;;10.60;74.30
64886;BME280;51514;52.206;5.114;2023-02-12T14:40:45;103921.97;;;10.51;74.74
64886;BME280;51514;52.206;5.114;2023-02-12T14:51:33;103925.16;;;10.42;75.05
64886;BME280;51514;52.206;5.114;2023-02-12T14:54:01;103926.19;;;10.40;74.85
64886;BME280;51514;52.206;5.114;2023-02-12T14:56:30;103923.59;;;10.38;75.25
64886;BME280;51514;52.206;5.114;2023-02-12T14:59:02;103925.31;;;10.39;74.66
64886;BME280;51514;52.206;5.114;2023-02-12T15:01:31;103920.91;;;10.38;74.83
64886;BME280;51514;52.206;5.114;2023-02-12T15:04:08;103926.31;;;10.38;74.56
64886;BME280;51514;52.206;5.114;2023-02-12T15:06:42;103920.03;;;10.38;73.98
64886;BME280;51514;52.206;5.114;2023-02-12T15:09:20;103929.06;;;10.37;74.14
64886;BME280;51514;52.206;5.114;2023-02-12T15:11:58;103926.19;;;10.40;75.00
64886;BME280;51514;52.206;5.114;2023-02-12T15:14:28;103926.19;;;10.40;74.67
64886;BME280;51514;52.206;5.114;2023-02-12T15:17:01;103924.44;;;10.39;74.57
64886;BME280;51514;52.206;5.114;2023-02-12T15:19:50;103919.91;;;10.39;73.52
64886;BME280;51514;52.206;5.114;2023-02-12T15:22:20;103922.72;;;10.38;73.99
64886;BME280;51514;52.206;5.114;2023-02-12T15:24:46;103923.41;;;10.41;74.38
64886;BME280;51514;52.206;5.114;2023-02-12T15:27:13;103923.19;;;10.46;74.36
64886;BME280;51514;52.206;5.114;2023-02-12T15:29:42;103925.00;;;10.45;74.61
64886;BME280;51514;52.206;5.114;2023-02-12T15:32:26;103915.97;;;10.46;74.43
64886;BME280;51514;52.206;5.114;2023-02-12T15:34:53;103920.41;;;10.47;73.92
64886;BME280;51514;52.206;5.114;2023-02-12T15:37:28;103920.41;;;10.47;73.72
64886;BME280;51514;52.206;5.114;2023-02-12T15:39:56;103914.06;;;10.48;73.86